createdAt,value
2023-04-09T00:01:29.914Z,99.90
2023-04-09T00:03:59.088Z,99.90
2023-04-09T00:06:27.185Z,99.90
2023-04-09T00:08:54.970Z,99.90
2023-04-09T00:11:22.765Z,99.90
2023-04-09T00:13:50.715Z,99.90
2023-04-09T00:16:18.518Z,99.90
2023-04-09T00:18:46.451Z,99.90
2023-04-09T00:21:16.162Z,99.90
2023-04-09T00:23:43.927Z,99.90
2023-04-09T00:26:11.628Z,99.90
2023-04-09T00:28:39.373Z,99.90
2023-04-09T00:31:07.085Z,99.90
2023-04-09T00:33:34.785Z,99.90
2023-04-09T00:36:02.933Z,99.90
2023-04-09T00:38:31.993Z,99.90
2023-04-09T00:40:59.734Z,99.90
2023-04-09T00:43:27.936Z,99.90
2023-04-09T00:45:55.941Z,99.90
2023-04-09T00:48:23.866Z,99.90
2023-04-09T00:50:51.632Z,99.90
2023-04-09T00:53:19.900Z,99.90
2023-04-09T00:55:48.946Z,99.90
2023-04-09T00:58:20.532Z,99.90
2023-04-09T01:00:48.380Z,99.90
2023-04-09T01:03:16.325Z,99.90
2023-04-09T01:05:52.239Z,99.90
2023-04-09T01:08:30.900Z,99.90
2023-04-09T01:11:09.004Z,99.90
2023-04-09T01:13:43.382Z,99.90
2023-04-09T01:16:13.356Z,99.90
2023-04-09T01:18:45.579Z,99.90
2023-04-09T01:21:15.350Z,99.90
2023-04-09T01:23:55.686Z,99.90
2023-04-09T01:26:42.409Z,99.90
2023-04-09T01:29:12.214Z,99.90
2023-04-09T01:31:43.465Z,99.90
2023-04-09T01:34:12.487Z,99.90
2023-04-09T01:36:41.408Z,99.90
2023-04-09T01:39:09.645Z,99.90
2023-04-09T01:41:38.947Z,99.90
2023-04-09T01:44:08.694Z,99.90
2023-04-09T01:46:40.370Z,99.90
2023-04-09T01:49:10.352Z,99.90
2023-04-09T01:51:38.616Z,99.90
2023-04-09T01:54:06.628Z,99.90
2023-04-09T01:56:44.044Z,99.90
2023-04-09T01:59:11.858Z,99.90
2023-04-09T02:01:47.850Z,99.90
2023-04-09T02:04:24.816Z,99.90
2023-04-09T02:06:59.566Z,99.90
2023-04-09T02:09:31.971Z,99.90
2023-04-09T02:12:06.737Z,99.90
2023-04-09T02:14:35.075Z,99.90
2023-04-09T02:17:04.431Z,99.90
2023-04-09T02:19:50.775Z,99.90
2023-04-09T02:22:18.914Z,99.90
2023-04-09T02:24:48.569Z,99.90
2023-04-09T02:27:24.576Z,99.90
2023-04-09T02:29:52.403Z,99.90
2023-04-09T02:32:21.469Z,99.90
2023-04-09T02:34:49.388Z,99.90
2023-04-09T02:37:21.093Z,99.90
2023-04-09T02:39:48.799Z,99.90
2023-04-09T02:42:16.542Z,99.90
2023-04-09T02:44:44.553Z,99.90
2023-04-09T02:47:12.251Z,99.90
2023-04-09T02:49:41.274Z,99.90
2023-04-09T02:52:10.936Z,99.90
2023-04-09T02:54:38.627Z,99.90
2023-04-09T02:57:06.361Z,99.90
2023-04-09T02:59:35.714Z,99.90
2023-04-09T03:02:03.563Z,99.90
2023-04-09T03:04:31.359Z,99.90
2023-04-09T03:07:00.423Z,99.90
2023-04-09T03:09:28.938Z,99.90
2023-04-09T03:11:57.324Z,99.90
2023-04-09T03:14:25.128Z,99.90
2023-04-09T03:16:52.848Z,99.90
2023-04-09T03:19:20.534Z,99.90
2023-04-09T03:21:49.231Z,99.90
2023-04-09T03:24:18.586Z,99.90
2023-04-09T03:26:46.352Z,99.90
2023-04-09T03:29:14.043Z,99.90
2023-04-09T03:31:41.839Z,99.90
2023-04-09T03:34:09.706Z,99.90
2023-04-09T03:36:38.494Z,99.90
2023-04-09T03:39:06.244Z,99.90
2023-04-09T03:41:35.364Z,99.90
2023-04-09T03:44:03.141Z,99.90
2023-04-09T03:46:30.941Z,99.90
2023-04-09T03:48:58.718Z,99.90
2023-04-09T03:51:27.161Z,99.90
2023-04-09T03:53:54.953Z,99.90
2023-04-09T03:56:23.073Z,99.90
2023-04-09T03:58:52.370Z,99.90
2023-04-09T04:01:20.337Z,99.90
2023-04-09T04:03:48.304Z,99.90
2023-04-09T04:06:16.100Z,99.90
2023-04-09T04:08:44.676Z,99.90
2023-04-09T04:11:12.394Z,99.90
2023-04-09T04:13:40.186Z,99.90
2023-04-09T04:16:10.977Z,99.90
2023-04-09T04:18:39.004Z,99.90
2023-04-09T04:21:06.978Z,99.90
2023-04-09T04:23:35.727Z,99.90
2023-04-09T04:26:03.477Z,99.90
2023-04-09T04:28:31.210Z,99.90
2023-04-09T04:30:58.918Z,99.90
2023-04-09T04:33:27.965Z,99.90
2023-04-09T04:36:04.583Z,99.90
2023-04-09T04:38:32.287Z,99.90
2023-04-09T04:41:00.012Z,99.90
2023-04-09T04:43:27.767Z,99.90
2023-04-09T04:45:55.793Z,99.90
2023-04-09T04:48:23.664Z,99.90
2023-04-09T04:50:58.037Z,99.90
2023-04-09T04:53:25.856Z,99.90
2023-04-09T04:55:53.937Z,99.90
2023-04-09T04:58:21.726Z,99.90
2023-04-09T05:00:49.526Z,99.90
2023-04-09T05:03:17.357Z,99.90
2023-04-09T05:05:45.985Z,99.90
2023-04-09T05:08:15.196Z,99.90
2023-04-09T05:10:43.848Z,99.90
2023-04-09T05:13:11.683Z,99.90
2023-04-09T05:15:40.473Z,99.90
2023-04-09T05:18:08.610Z,99.90
2023-04-09T05:20:36.619Z,99.90
2023-04-09T05:23:04.415Z,99.90
2023-04-09T05:25:33.466Z,99.90
2023-04-09T05:28:01.218Z,99.90
2023-04-09T05:30:28.948Z,99.90
2023-04-09T05:32:56.692Z,99.90
2023-04-09T05:35:24.442Z,99.90
2023-04-09T05:37:52.151Z,99.90
2023-04-09T05:40:19.901Z,99.90
2023-04-09T05:42:48.968Z,99.90
2023-04-09T05:45:16.727Z,99.90
2023-04-09T05:47:44.533Z,99.90
2023-04-09T05:50:12.508Z,99.90
2023-04-09T05:52:40.256Z,99.90
2023-04-09T05:55:09.785Z,99.90
2023-04-09T05:57:37.499Z,99.90
2023-04-09T06:00:08.120Z,99.90
2023-04-09T06:02:36.025Z,99.90
2023-04-09T06:05:03.858Z,99.90
2023-04-09T06:07:31.886Z,99.90
2023-04-09T06:09:59.568Z,99.90
2023-04-09T06:12:27.260Z,99.90
2023-04-09T06:14:55.014Z,99.90
2023-04-09T06:17:24.188Z,99.90
2023-04-09T06:19:51.932Z,99.90
2023-04-09T06:22:19.627Z,99.90
2023-04-09T06:24:47.353Z,99.90
2023-04-09T06:27:15.581Z,99.90
2023-04-09T06:29:43.268Z,99.90
2023-04-09T06:32:11.065Z,99.90
2023-04-09T06:34:40.178Z,99.90
2023-04-09T06:37:07.922Z,99.90
2023-04-09T06:39:35.922Z,99.90
2023-04-09T06:42:04.728Z,99.90
2023-04-09T06:44:32.465Z,99.90
2023-04-09T06:47:00.292Z,99.90
2023-04-09T06:49:28.055Z,99.90
2023-04-09T06:51:57.064Z,99.90
2023-04-09T06:54:25.023Z,99.90
2023-04-09T06:56:52.774Z,99.90
2023-04-09T06:59:20.498Z,99.90
2023-04-09T07:01:48.314Z,99.90
2023-04-09T07:04:16.329Z,99.90
2023-04-09T07:06:44.332Z,99.90
2023-04-09T07:09:13.487Z,99.90
2023-04-09T07:11:41.211Z,99.90
2023-04-09T07:14:08.943Z,99.90
2023-04-09T07:16:36.716Z,99.90
2023-04-09T07:19:06.426Z,99.90
2023-04-09T07:21:34.209Z,99.90
2023-04-09T07:24:01.959Z,99.90
2023-04-09T07:26:31.053Z,99.90
2023-04-09T07:28:59.358Z,99.90
2023-04-09T07:31:27.086Z,99.90
2023-04-09T07:33:55.137Z,99.90
2023-04-09T07:36:23.101Z,99.90
2023-04-09T07:38:51.239Z,99.90
2023-04-09T07:41:19.110Z,99.90
2023-04-09T07:43:48.166Z,99.90
2023-04-09T07:46:20.216Z,99.90
2023-04-09T07:48:49.434Z,99.90
2023-04-09T07:51:17.483Z,99.90
2023-04-09T07:53:48.222Z,99.90
2023-04-09T07:56:16.687Z,99.90
2023-04-09T07:58:44.761Z,99.90
2023-04-09T08:01:13.820Z,99.90
2023-04-09T08:03:41.753Z,99.90
2023-04-09T08:06:09.585Z,99.90
2023-04-09T08:08:37.484Z,99.90
2023-04-09T08:11:06.742Z,99.90
2023-04-09T08:13:34.452Z,99.90
2023-04-09T08:16:03.651Z,99.90
2023-04-09T08:18:32.786Z,99.90
2023-04-09T08:21:04.997Z,99.90
2023-04-09T08:23:32.761Z,99.90
2023-04-09T08:26:00.458Z,99.90
2023-04-09T08:28:28.199Z,99.90
2023-04-09T08:30:55.882Z,99.90
2023-04-09T08:33:23.605Z,99.90
2023-04-09T08:35:53.286Z,99.90
2023-04-09T08:38:21.776Z,99.90
2023-04-09T08:40:49.557Z,99.90
2023-04-09T08:43:18.127Z,99.90
2023-04-09T08:45:46.650Z,99.90
2023-04-09T08:48:15.995Z,99.90
2023-04-09T08:50:46.095Z,99.90
2023-04-09T08:53:16.596Z,99.90
2023-04-09T08:55:46.677Z,99.90
2023-04-09T08:58:14.437Z,99.90
2023-04-09T09:00:42.339Z,99.90
2023-04-09T09:03:13.005Z,99.90
2023-04-09T09:05:42.168Z,99.90
2023-04-09T09:08:10.695Z,99.90
2023-04-09T09:10:41.580Z,99.90
2023-04-09T09:13:18.586Z,99.90
2023-04-09T09:15:47.720Z,99.90
2023-04-09T09:18:15.527Z,99.90
2023-04-09T09:20:43.275Z,99.90
2023-04-09T09:23:11.088Z,99.90
2023-04-09T09:25:43.383Z,99.90
2023-04-09T09:28:12.286Z,99.90
2023-04-09T09:30:41.590Z,99.90
2023-04-09T09:33:10.642Z,99.90
2023-04-09T09:35:49.973Z,99.90
2023-04-09T09:38:18.245Z,99.90
2023-04-09T09:40:48.353Z,99.90
2023-04-09T09:43:16.158Z,99.90
2023-04-09T09:45:45.067Z,99.90
2023-04-09T09:48:14.061Z,99.90
2023-04-09T09:50:43.086Z,99.90
2023-04-09T09:53:12.189Z,99.90
2023-04-09T09:55:41.695Z,99.90
2023-04-09T09:58:17.917Z,99.90
2023-04-09T10:00:48.849Z,99.90
2023-04-09T10:03:22.329Z,99.90
2023-04-09T10:05:50.858Z,99.90
2023-04-09T10:08:18.986Z,99.90
2023-04-09T10:10:48.411Z,99.90
2023-04-09T10:13:25.553Z,99.90
2023-04-09T10:15:53.904Z,99.90
2023-04-09T10:18:22.395Z,99.90
2023-04-09T10:20:56.079Z,99.90
2023-04-09T10:23:33.902Z,99.90
2023-04-09T10:26:03.026Z,99.90
2023-04-09T10:28:32.809Z,99.00
2023-04-09T10:31:01.250Z,99.90
2023-04-09T10:33:29.481Z,99.90
2023-04-09T10:36:01.900Z,97.80
2023-04-09T10:38:37.381Z,98.40
2023-04-09T10:41:13.822Z,99.00
2023-04-09T10:43:43.112Z,99.30
2023-04-09T10:46:26.755Z,98.70
2023-04-09T10:49:13.513Z,96.90
2023-04-09T10:51:41.872Z,95.80
2023-04-09T10:54:43.557Z,96.50
2023-04-09T10:57:13.593Z,96.40
2023-04-09T10:59:44.796Z,96.60
2023-04-09T11:02:38.431Z,96.70
2023-04-09T11:05:19.555Z,95.20
2023-04-09T11:07:52.766Z,94.20
2023-04-09T11:10:20.878Z,94.60
2023-04-09T11:12:49.048Z,96.40
2023-04-09T11:15:19.325Z,96.60
2023-04-09T11:17:47.649Z,96.20
2023-04-09T11:20:17.348Z,93.50
2023-04-09T11:22:45.248Z,92.30
2023-04-09T11:25:19.841Z,92.30
2023-04-09T11:27:47.817Z,93.00
2023-04-09T11:30:16.250Z,93.30
2023-04-09T11:32:45.907Z,93.90
2023-04-09T11:35:15.595Z,92.10
2023-04-09T11:37:44.713Z,91.90
2023-04-09T11:40:19.969Z,91.30
2023-04-09T11:42:50.969Z,90.40
2023-04-09T11:45:19.757Z,90.00
2023-04-09T11:47:49.215Z,90.30
2023-04-09T11:50:17.573Z,91.60
2023-04-09T11:52:46.907Z,90.60
2023-04-09T11:55:25.175Z,90.00
2023-04-09T11:57:55.020Z,90.40
2023-04-09T12:00:24.700Z,91.00
2023-04-09T12:03:02.407Z,90.40
2023-04-09T12:05:31.760Z,87.10
2023-04-09T12:08:01.384Z,91.10
2023-04-09T12:10:30.372Z,89.00
2023-04-09T12:13:03.500Z,90.20
2023-04-09T12:15:33.974Z,88.20
2023-04-09T12:18:03.859Z,88.80
2023-04-09T12:20:34.909Z,90.20
2023-04-09T12:23:04.916Z,89.20
2023-04-09T12:25:33.205Z,87.60
2023-04-09T12:28:01.447Z,88.10
2023-04-09T12:30:29.176Z,87.90
2023-04-09T12:32:57.143Z,86.80
2023-04-09T12:35:26.867Z,86.70
2023-04-09T12:37:54.782Z,85.30
2023-04-09T12:40:22.984Z,85.40
2023-04-09T12:42:50.757Z,86.00
2023-04-09T12:45:20.175Z,84.30
2023-04-09T12:47:48.066Z,86.40
2023-04-09T12:50:16.633Z,83.50
2023-04-09T12:52:45.932Z,84.90
2023-04-09T12:55:14.605Z,84.10
2023-04-09T12:57:44.768Z,84.00
2023-04-09T13:00:13.918Z,82.90
2023-04-09T13:02:41.784Z,83.20
2023-04-09T13:05:10.044Z,82.10
2023-04-09T13:07:37.835Z,80.40
2023-04-09T13:10:07.755Z,81.00
2023-04-09T13:12:35.453Z,82.00
2023-04-09T13:15:03.824Z,79.10
2023-04-09T13:17:31.567Z,80.80
2023-04-09T13:19:59.316Z,78.80
2023-04-09T13:22:27.242Z,80.20
2023-04-09T13:24:54.993Z,79.40
2023-04-09T13:27:24.006Z,80.80
2023-04-09T13:29:51.946Z,84.20
2023-04-09T13:32:21.779Z,79.80
2023-04-09T13:34:49.553Z,81.60
2023-04-09T13:37:18.319Z,83.20
2023-04-09T13:39:46.694Z,82.50
2023-04-09T13:42:16.180Z,83.20
2023-04-09T13:44:45.617Z,83.70
2023-04-09T13:47:13.818Z,83.70
2023-04-09T13:49:42.018Z,81.40
2023-04-09T13:52:10.583Z,83.90
2023-04-09T13:54:38.462Z,83.20
2023-04-09T13:57:06.347Z,86.50
2023-04-09T13:59:34.037Z,84.70
2023-04-09T14:02:03.159Z,87.50
2023-04-09T14:04:31.055Z,86.80
2023-04-09T14:06:58.854Z,86.90
2023-04-09T14:09:26.632Z,86.70
2023-04-09T14:11:56.028Z,87.80
2023-04-09T14:14:23.875Z,87.90
2023-04-09T14:16:51.577Z,86.50
2023-04-09T14:19:20.771Z,88.40
2023-04-09T14:21:48.498Z,88.00
2023-04-09T14:24:16.312Z,88.90
2023-04-09T14:26:44.044Z,88.50
2023-04-09T14:29:11.745Z,88.80
2023-04-09T14:31:41.805Z,90.00
2023-04-09T14:34:09.899Z,87.60
2023-04-09T14:36:38.972Z,89.80
2023-04-09T14:39:06.681Z,86.70
2023-04-09T14:41:36.491Z,87.60
2023-04-09T14:44:04.286Z,89.60
2023-04-09T14:46:32.949Z,88.70
2023-04-09T14:49:00.913Z,88.60
2023-04-09T14:51:30.384Z,88.30
2023-04-09T14:53:59.538Z,88.60
2023-04-09T14:56:27.364Z,87.60
2023-04-09T14:58:55.200Z,89.40
2023-04-09T15:01:22.970Z,90.40
2023-04-09T15:03:51.220Z,90.70
2023-04-09T15:06:19.257Z,90.90
2023-04-09T15:08:46.970Z,90.10
2023-04-09T15:11:17.672Z,88.90
2023-04-09T15:13:45.625Z,90.10
2023-04-09T15:16:22.258Z,90.00
2023-04-09T15:18:51.991Z,89.90
2023-04-09T15:21:20.735Z,89.80
2023-04-09T15:23:48.454Z,90.60
2023-04-09T15:26:17.545Z,90.80
2023-04-09T15:28:46.085Z,90.50
2023-04-09T15:31:14.118Z,90.30
2023-04-09T15:33:43.466Z,91.10
2023-04-09T15:36:12.551Z,91.30
2023-04-09T15:38:40.418Z,90.50
2023-04-09T15:41:08.153Z,89.70
2023-04-09T15:43:37.302Z,90.60
2023-04-09T15:46:09.950Z,91.10
2023-04-09T15:48:37.863Z,91.40
2023-04-09T15:51:06.162Z,91.90
2023-04-09T15:53:33.932Z,92.10
2023-04-09T15:56:01.704Z,92.20
2023-04-09T15:58:29.753Z,93.00
2023-04-09T16:00:58.876Z,92.70
2023-04-09T16:03:26.873Z,92.60
2023-04-09T16:05:54.625Z,92.40
2023-04-09T16:08:22.307Z,93.30
2023-04-09T16:10:50.066Z,93.30
2023-04-09T16:13:17.760Z,92.70
2023-04-09T16:15:46.693Z,93.90
2023-04-09T16:18:16.030Z,93.20
2023-04-09T16:20:43.749Z,93.60
2023-04-09T16:23:11.531Z,93.90
2023-04-09T16:25:39.307Z,93.80
2023-04-09T16:28:07.040Z,94.10
2023-04-09T16:30:34.838Z,94.30
2023-04-09T16:33:02.789Z,94.50
2023-04-09T16:35:32.056Z,94.80
2023-04-09T16:37:59.917Z,94.80
2023-04-09T16:40:27.790Z,94.60
2023-04-09T16:42:55.617Z,94.00
2023-04-09T16:45:23.661Z,94.30
2023-04-09T16:47:53.994Z,94.30
2023-04-09T16:50:21.940Z,94.20
2023-04-09T16:52:51.411Z,93.80
2023-04-09T16:55:21.382Z,93.40
2023-04-09T16:57:49.304Z,93.10
2023-04-09T17:00:18.240Z,93.10
2023-04-09T17:02:46.932Z,92.90
2023-04-09T17:05:15.885Z,92.70
2023-04-09T17:07:43.590Z,93.10
2023-04-09T17:10:12.905Z,92.80
2023-04-09T17:12:40.770Z,92.20
2023-04-09T17:15:09.849Z,92.50
2023-04-09T17:17:38.276Z,92.00
2023-04-09T17:20:07.404Z,91.90
2023-04-09T17:22:35.736Z,92.30
2023-04-09T17:25:04.764Z,92.10
2023-04-09T17:27:34.024Z,92.30
2023-04-09T17:30:01.977Z,92.70
2023-04-09T17:32:29.736Z,92.80
2023-04-09T17:34:59.443Z,92.90
2023-04-09T17:37:28.806Z,92.80
2023-04-09T17:39:56.593Z,93.10
2023-04-09T17:42:24.555Z,93.40
2023-04-09T17:44:53.701Z,93.60
2023-04-09T17:47:21.502Z,93.80
2023-04-09T17:49:49.261Z,93.70
2023-04-09T17:52:17.035Z,93.90
2023-04-09T17:54:45.736Z,93.80
2023-04-09T17:57:13.594Z,94.00
2023-04-09T17:59:41.374Z,94.10
2023-04-09T18:02:10.769Z,94.20
2023-04-09T18:04:39.100Z,94.30
2023-04-09T18:07:07.832Z,94.50
2023-04-09T18:09:35.615Z,94.50
2023-04-09T18:12:03.346Z,94.60
2023-04-09T18:14:32.362Z,94.70
2023-04-09T18:17:00.980Z,94.60
2023-04-09T18:19:30.186Z,94.50
2023-04-09T18:21:57.921Z,94.80
2023-04-09T18:24:26.293Z,95.30
2023-04-09T18:26:54.022Z,95.50
2023-04-09T18:29:21.816Z,96.10
2023-04-09T18:31:49.610Z,96.50
2023-04-09T18:34:17.348Z,96.50
2023-04-09T18:36:47.254Z,96.50
2023-04-09T18:39:15.209Z,96.60
2023-04-09T18:41:44.083Z,96.60
2023-04-09T18:44:11.938Z,96.70
2023-04-09T18:46:39.855Z,96.60
2023-04-09T18:49:07.567Z,97.20
2023-04-09T18:51:35.357Z,97.00
2023-04-09T18:54:04.448Z,96.80
2023-04-09T18:56:32.275Z,97.20
2023-04-09T18:58:59.970Z,97.30
2023-04-09T19:01:27.690Z,97.70
2023-04-09T19:03:55.670Z,98.10
2023-04-09T19:06:25.455Z,98.20
2023-04-09T19:08:57.855Z,98.50
2023-04-09T19:11:26.953Z,98.80
2023-04-09T19:13:54.680Z,98.80
2023-04-09T19:16:22.542Z,98.70
2023-04-09T19:18:50.274Z,98.80
2023-04-09T19:21:18.516Z,99.10
2023-04-09T19:23:46.746Z,99.10
2023-04-09T19:26:14.722Z,99.20
2023-04-09T19:28:43.775Z,99.20
2023-04-09T19:31:14.159Z,99.10
2023-04-09T19:33:41.903Z,99.10
2023-04-09T19:36:09.601Z,99.30
2023-04-09T19:38:37.313Z,99.60
2023-04-09T19:41:05.344Z,99.40
2023-04-09T19:43:33.186Z,99.50
2023-04-09T19:46:05.825Z,99.50
2023-04-09T19:48:33.565Z,99.20
2023-04-09T19:51:01.970Z,99.20
2023-04-09T19:53:30.903Z,99.40
2023-04-09T19:55:58.615Z,99.80
2023-04-09T19:58:26.397Z,99.90
2023-04-09T20:00:54.781Z,99.90
2023-04-09T20:03:24.023Z,99.90
2023-04-09T20:05:51.847Z,99.90
2023-04-09T20:08:19.564Z,99.90
2023-04-09T20:10:47.684Z,99.90
2023-04-09T20:13:15.457Z,99.90
2023-04-09T20:15:43.597Z,99.90
2023-04-09T20:18:11.571Z,99.90
2023-04-09T20:20:40.804Z,99.90
2023-04-09T20:23:08.517Z,99.90
2023-04-09T20:25:36.646Z,99.90
2023-04-09T20:28:04.766Z,99.90
2023-04-09T20:30:32.910Z,99.90
2023-04-09T20:33:01.260Z,99.90
2023-04-09T20:35:29.072Z,99.90
2023-04-09T20:37:58.148Z,99.90
2023-04-09T20:40:26.229Z,99.90
2023-04-09T20:42:53.905Z,99.90
2023-04-09T20:45:21.602Z,99.90
2023-04-09T20:47:49.363Z,99.90
2023-04-09T20:50:17.320Z,99.90
2023-04-09T20:52:45.064Z,99.90
2023-04-09T20:55:14.146Z,99.90
2023-04-09T20:57:42.319Z,99.90
2023-04-09T21:00:11.141Z,99.90
2023-04-09T21:02:40.486Z,99.90
2023-04-09T21:05:19.693Z,99.90
2023-04-09T21:07:51.137Z,99.90
2023-04-09T21:10:20.285Z,99.90
2023-04-09T21:12:48.155Z,99.90
2023-04-09T21:15:16.063Z,99.90
2023-04-09T21:17:43.849Z,99.90
2023-04-09T21:20:12.584Z,99.90
2023-04-09T21:22:40.388Z,99.90
2023-04-09T21:25:08.779Z,99.90
2023-04-09T21:27:37.854Z,99.90
2023-04-09T21:30:06.380Z,99.90
2023-04-09T21:32:34.167Z,99.90
2023-04-09T21:35:01.917Z,99.90
2023-04-09T21:37:31.924Z,99.90
2023-04-09T21:39:59.650Z,99.90
2023-04-09T21:42:27.587Z,99.90
2023-04-09T21:44:56.627Z,99.90
2023-04-09T21:47:24.561Z,99.90
2023-04-09T21:49:52.307Z,99.90
2023-04-09T21:52:20.059Z,99.90
2023-04-09T21:54:47.773Z,99.90
2023-04-09T21:57:15.845Z,99.90
2023-04-09T21:59:43.567Z,99.90
2023-04-09T22:02:12.740Z,99.90
2023-04-09T22:04:42.432Z,99.90
2023-04-09T22:07:11.454Z,99.90
2023-04-09T22:09:39.270Z,99.90
2023-04-09T22:12:07.180Z,99.90
2023-04-09T22:14:34.857Z,99.90
2023-04-09T22:17:03.394Z,99.90
2023-04-09T22:19:33.908Z,99.90
2023-04-09T22:22:01.630Z,99.90
2023-04-09T22:24:30.238Z,99.90
2023-04-09T22:26:59.237Z,99.90
2023-04-09T22:29:27.629Z,99.90
2023-04-09T22:31:55.685Z,99.90
2023-04-09T22:34:30.025Z,99.90
2023-04-09T22:36:59.040Z,99.90
2023-04-09T22:39:27.035Z,99.90
2023-04-09T22:41:54.733Z,99.90
2023-04-09T22:44:22.495Z,99.90
2023-04-09T22:46:50.285Z,99.90
2023-04-09T22:49:18.305Z,99.90
2023-04-09T22:51:46.331Z,99.90
2023-04-09T22:54:15.544Z,99.90
2023-04-09T22:56:44.633Z,99.90
2023-04-09T22:59:12.427Z,99.90
2023-04-09T23:01:40.264Z,99.90
2023-04-09T23:04:08.153Z,99.90
2023-04-09T23:06:35.919Z,99.90
2023-04-09T23:09:03.696Z,99.90
2023-04-09T23:11:32.700Z,99.90
2023-04-09T23:14:00.397Z,99.90
2023-04-09T23:16:28.096Z,99.90
2023-04-09T23:18:56.162Z,99.90
2023-04-09T23:21:24.062Z,99.90
2023-04-09T23:23:52.027Z,99.90
2023-04-09T23:26:19.923Z,99.90
2023-04-09T23:28:48.977Z,99.90
2023-04-09T23:31:17.098Z,99.90
2023-04-09T23:33:44.804Z,99.90
2023-04-09T23:36:12.466Z,99.90
2023-04-09T23:38:43.641Z,99.90
2023-04-09T23:41:11.345Z,99.90
2023-04-09T23:43:39.054Z,99.90
2023-04-09T23:46:08.171Z,99.90
2023-04-09T23:48:35.940Z,99.90
2023-04-09T23:51:03.613Z,99.90
2023-04-09T23:53:31.291Z,99.90
2023-04-09T23:55:59.493Z,99.90
2023-04-09T23:58:27.191Z,99.90
